createdAt,value
2017-12-25T00:01:43.125Z,4.20
2017-12-25T00:04:10.823Z,4.10
2017-12-25T00:06:38.646Z,4.00
2017-12-25T00:09:06.253Z,4.00
2017-12-25T00:11:33.928Z,4.20
2017-12-25T00:14:01.565Z,4.30
2017-12-25T00:16:29.323Z,4.40
2017-12-25T00:18:57.847Z,4.40
2017-12-25T00:21:28.964Z,3.90
2017-12-25T00:23:56.723Z,3.90
2017-12-25T00:26:24.388Z,3.80
2017-12-25T00:28:52.362Z,3.80
2017-12-25T00:31:20.224Z,3.70
2017-12-25T00:33:48.332Z,3.80
2017-12-25T00:36:16.281Z,3.80
2017-12-25T00:38:44.354Z,3.40
2017-12-25T00:41:12.719Z,3.70
2017-12-25T00:43:40.835Z,3.90
2017-12-25T00:46:09.066Z,4.10
2017-12-25T00:48:36.909Z,4.10
2017-12-25T00:51:06.296Z,4.20
2017-12-25T00:53:34.100Z,4.30
2017-12-25T00:56:02.004Z,4.20
2017-12-25T00:58:31.588Z,4.30
2017-12-25T01:00:59.139Z,4.40
2017-12-25T01:03:27.148Z,4.30
2017-12-25T01:05:56.035Z,4.20
2017-12-25T01:08:23.656Z,4.00
2017-12-25T01:10:51.399Z,4.10
2017-12-25T01:13:19.091Z,4.10
2017-12-25T01:15:47.160Z,4.10
2017-12-25T01:18:14.906Z,4.10
2017-12-25T01:20:42.490Z,4.20
2017-12-25T01:23:10.052Z,4.20
2017-12-25T01:25:37.771Z,4.30
2017-12-25T01:28:05.961Z,4.10
2017-12-25T01:30:33.676Z,3.90
2017-12-25T01:33:01.386Z,3.80
2017-12-25T01:35:29.623Z,3.80
2017-12-25T01:37:58.455Z,4.00
2017-12-25T01:40:26.397Z,4.00
2017-12-25T01:42:54.752Z,3.90
2017-12-25T01:45:22.327Z,3.90
2017-12-25T01:47:51.212Z,4.00
2017-12-25T01:50:20.833Z,3.80
2017-12-25T01:52:49.524Z,3.80
2017-12-25T01:55:17.885Z,3.80
2017-12-25T01:57:51.415Z,3.80
2017-12-25T02:03:22.304Z,3.30
2017-12-25T02:05:59.967Z,3.30
2017-12-25T02:08:29.574Z,3.70
2017-12-25T02:10:57.132Z,4.00
2017-12-25T02:13:25.016Z,4.10
2017-12-25T02:15:54.037Z,4.20
2017-12-25T02:18:21.619Z,4.20
2017-12-25T02:20:49.140Z,4.20
2017-12-25T02:23:16.713Z,4.30
2017-12-25T02:25:44.352Z,4.30
2017-12-25T02:28:12.115Z,4.20
2017-12-25T02:30:40.082Z,4.20
2017-12-25T02:33:07.884Z,4.20
2017-12-25T02:35:35.907Z,4.00
2017-12-25T02:38:04.450Z,3.90
2017-12-25T02:40:33.161Z,4.00
2017-12-25T02:43:00.960Z,4.00
2017-12-25T02:45:29.700Z,4.10
2017-12-25T02:47:57.255Z,4.20
2017-12-25T02:50:25.661Z,3.90
2017-12-25T02:52:53.412Z,3.90
2017-12-25T02:55:20.999Z,3.60
2017-12-25T02:57:48.541Z,3.80
2017-12-25T03:00:16.053Z,3.80
2017-12-25T03:02:43.885Z,3.80
2017-12-25T03:05:11.632Z,3.80
2017-12-25T03:07:39.268Z,3.60
2017-12-25T03:10:07.211Z,3.80
2017-12-25T03:12:35.065Z,3.80
2017-12-25T03:15:03.255Z,3.70
2017-12-25T03:17:32.324Z,3.30
2017-12-25T03:20:00.316Z,3.30
2017-12-25T03:22:29.300Z,3.10
2017-12-25T03:24:57.433Z,3.10
2017-12-25T03:27:29.643Z,3.00
2017-12-25T03:29:57.958Z,3.10
2017-12-25T03:32:25.534Z,3.00
2017-12-25T03:34:55.290Z,3.30
2017-12-25T03:37:23.882Z,3.50
2017-12-25T03:39:52.379Z,3.80
2017-12-25T03:42:20.054Z,3.70
2017-12-25T03:44:47.827Z,3.80
2017-12-25T03:47:15.366Z,3.80
2017-12-25T03:49:42.924Z,3.90
2017-12-25T03:52:11.083Z,3.90
2017-12-25T03:54:38.934Z,3.90
2017-12-25T03:57:07.983Z,3.60
2017-12-25T03:59:35.842Z,3.50
2017-12-25T04:02:03.419Z,3.60
2017-12-25T04:04:31.923Z,3.70
2017-12-25T04:06:59.984Z,3.70
2017-12-25T04:09:27.521Z,3.60
2017-12-25T04:11:55.175Z,3.30
2017-12-25T04:14:23.851Z,3.40
2017-12-25T04:16:51.384Z,3.10
2017-12-25T04:19:19.104Z,3.10
2017-12-25T04:21:46.660Z,2.90
2017-12-25T04:24:14.301Z,3.00
2017-12-25T04:26:42.196Z,3.20
2017-12-25T04:29:10.035Z,3.00
2017-12-25T04:31:37.797Z,3.00
2017-12-25T04:34:07.310Z,3.00
2017-12-25T04:36:36.151Z,3.10
2017-12-25T04:39:04.868Z,2.80
2017-12-25T04:41:32.427Z,2.80
2017-12-25T04:43:59.962Z,2.70
2017-12-25T04:46:29.500Z,2.70
2017-12-25T04:48:57.024Z,2.70
2017-12-25T04:51:25.024Z,2.60
2017-12-25T04:53:52.619Z,2.80
2017-12-25T04:56:20.370Z,3.00
2017-12-25T04:58:47.895Z,3.10
2017-12-25T05:01:15.759Z,2.90
2017-12-25T05:03:43.335Z,2.70
2017-12-25T05:06:11.012Z,2.90
2017-12-25T05:08:38.627Z,2.90
2017-12-25T05:11:06.326Z,2.50
2017-12-25T05:13:33.895Z,2.40
2017-12-25T05:16:01.478Z,2.30
2017-12-25T05:18:29.047Z,2.40
2017-12-25T05:20:56.616Z,2.60
2017-12-25T05:23:24.171Z,2.50
2017-12-25T05:25:52.455Z,2.70
2017-12-25T05:28:21.139Z,2.70
2017-12-25T05:30:49.640Z,2.80
2017-12-25T05:33:17.540Z,2.80
2017-12-25T05:35:45.203Z,2.90
2017-12-25T05:38:13.974Z,2.80
2017-12-25T05:40:41.843Z,2.80
2017-12-25T05:43:09.468Z,2.30
2017-12-25T05:45:37.445Z,2.10
2017-12-25T05:48:05.235Z,2.30
2017-12-25T05:50:32.998Z,2.10
2017-12-25T05:53:00.775Z,2.20
2017-12-25T05:55:28.832Z,1.80
2017-12-25T05:57:56.516Z,2.00
2017-12-25T06:00:24.151Z,1.90
2017-12-25T06:02:51.752Z,2.10
2017-12-25T06:05:19.380Z,2.40
2017-12-25T06:07:46.969Z,2.10
2017-12-25T06:10:14.537Z,2.10
2017-12-25T06:12:42.468Z,2.20
2017-12-25T06:15:09.991Z,2.40
2017-12-25T06:17:37.572Z,2.60
2017-12-25T06:20:05.121Z,2.30
2017-12-25T06:22:32.670Z,2.40
2017-12-25T06:25:00.278Z,2.50
2017-12-25T06:27:28.329Z,2.70
2017-12-25T06:29:58.160Z,2.70
2017-12-25T06:32:26.892Z,2.40
2017-12-25T06:34:54.512Z,2.40
2017-12-25T06:37:22.289Z,2.50
2017-12-25T06:39:49.933Z,2.60
2017-12-25T06:42:17.680Z,2.60
2017-12-25T06:44:45.256Z,2.70
2017-12-25T06:47:13.119Z,2.20
2017-12-25T06:49:40.662Z,2.00
2017-12-25T06:52:09.676Z,1.80
2017-12-25T06:54:37.507Z,2.00
2017-12-25T06:57:05.437Z,2.10
2017-12-25T06:59:33.167Z,2.20
2017-12-25T07:02:01.326Z,2.40
2017-12-25T07:04:29.190Z,2.40
2017-12-25T07:06:56.775Z,2.00
2017-12-25T07:09:24.420Z,1.90
2017-12-25T07:11:52.057Z,2.10
2017-12-25T07:14:20.631Z,1.60
2017-12-25T07:16:48.187Z,1.60
2017-12-25T07:19:15.891Z,1.80
2017-12-25T07:21:43.847Z,1.50
2017-12-25T07:24:11.711Z,1.60
2017-12-25T07:26:39.280Z,1.70
2017-12-25T07:29:07.804Z,1.90
2017-12-25T07:31:35.510Z,2.10
2017-12-25T07:34:03.905Z,1.90
2017-12-25T07:36:31.493Z,1.80
2017-12-25T07:38:59.084Z,1.70
2017-12-25T07:41:26.625Z,1.70
2017-12-25T07:43:54.961Z,2.00
2017-12-25T07:46:22.479Z,2.00
2017-12-25T07:48:52.029Z,2.20
2017-12-25T07:51:19.577Z,2.30
2017-12-25T07:53:47.115Z,2.30
2017-12-25T07:56:14.682Z,2.20
2017-12-25T07:58:42.259Z,2.30
2017-12-25T08:01:09.831Z,2.50
2017-12-25T08:03:37.576Z,2.40
2017-12-25T08:06:05.151Z,2.30
2017-12-25T08:08:33.691Z,2.30
2017-12-25T08:11:02.975Z,2.40
2017-12-25T08:13:31.276Z,2.50
2017-12-25T08:15:58.834Z,2.40
2017-12-25T08:18:26.366Z,2.30
2017-12-25T08:20:54.963Z,2.20
2017-12-25T08:23:22.842Z,2.30
2017-12-25T08:25:50.994Z,2.40
2017-12-25T08:28:18.787Z,2.30
2017-12-25T08:30:46.862Z,2.10
2017-12-25T08:33:15.754Z,1.90
2017-12-25T08:35:43.603Z,1.90
2017-12-25T08:38:11.248Z,1.70
2017-12-25T08:40:38.772Z,1.60
2017-12-25T08:43:08.315Z,1.80
2017-12-25T08:45:35.868Z,1.80
2017-12-25T08:48:04.823Z,1.90
2017-12-25T08:50:33.345Z,1.90
2017-12-25T08:53:00.934Z,2.10
2017-12-25T08:55:28.572Z,2.10
2017-12-25T08:57:56.356Z,2.10
2017-12-25T09:00:25.915Z,2.30
2017-12-25T09:02:53.716Z,2.50
2017-12-25T09:05:21.284Z,2.50
2017-12-25T09:07:48.955Z,2.70
2017-12-25T09:10:16.688Z,2.80
2017-12-25T09:12:45.107Z,2.50
2017-12-25T09:15:12.655Z,2.50
2017-12-25T09:17:40.193Z,2.60
2017-12-25T09:20:07.754Z,2.50
2017-12-25T09:22:35.311Z,2.10
2017-12-25T09:25:02.885Z,2.00
2017-12-25T09:27:30.439Z,2.00
2017-12-25T09:29:58.928Z,2.20
2017-12-25T09:32:26.499Z,2.40
2017-12-25T09:34:54.063Z,2.40
2017-12-25T09:37:21.895Z,2.70
2017-12-25T09:39:49.438Z,2.90
2017-12-25T09:42:16.999Z,3.10
2017-12-25T09:44:45.302Z,3.20
2017-12-25T09:47:12.861Z,3.20
2017-12-25T09:49:40.809Z,3.20
2017-12-25T09:52:08.436Z,3.40
2017-12-25T09:54:36.239Z,3.20
2017-12-25T09:57:03.880Z,3.10
2017-12-25T09:59:31.439Z,3.20
2017-12-25T10:01:58.980Z,3.00
2017-12-25T10:04:26.564Z,3.30
2017-12-25T10:06:54.271Z,3.50
2017-12-25T10:09:21.800Z,3.40
2017-12-25T10:11:50.710Z,3.20
2017-12-25T10:14:18.781Z,3.00
2017-12-25T10:16:48.607Z,3.20
2017-12-25T10:19:16.179Z,3.30
2017-12-25T10:21:43.739Z,3.20
2017-12-25T10:24:11.264Z,3.20
2017-12-25T10:26:39.755Z,3.20
2017-12-25T10:29:07.299Z,2.90
2017-12-25T10:31:34.844Z,3.00
2017-12-25T10:34:02.391Z,3.10
2017-12-25T10:36:30.740Z,3.10
2017-12-25T10:38:58.323Z,3.00
2017-12-25T10:41:26.289Z,3.20
2017-12-25T10:43:53.851Z,3.10
2017-12-25T10:46:21.884Z,3.40
2017-12-25T10:48:49.625Z,3.40
2017-12-25T10:51:17.593Z,3.70
2017-12-25T10:53:45.264Z,3.80
2017-12-25T10:56:12.820Z,4.00
2017-12-25T10:58:40.346Z,4.10
2017-12-25T11:01:08.690Z,4.40
2017-12-25T11:03:36.219Z,4.40
2017-12-25T11:06:03.778Z,4.60
2017-12-25T11:08:31.325Z,4.80
2017-12-25T11:10:58.879Z,4.90
2017-12-25T11:13:26.430Z,5.00
2017-12-25T11:15:54.476Z,5.10
2017-12-25T11:18:23.205Z,5.30
2017-12-25T11:20:50.759Z,5.20
2017-12-25T11:23:18.416Z,5.50
2017-12-25T11:25:46.089Z,5.50
2017-12-25T11:28:13.663Z,5.70
2017-12-25T11:30:41.491Z,5.90
2017-12-25T11:33:09.514Z,6.10
2017-12-25T11:35:38.186Z,6.20
2017-12-25T11:38:06.242Z,6.30
2017-12-25T11:40:33.784Z,6.40
2017-12-25T11:43:01.357Z,6.50
2017-12-25T11:45:29.224Z,6.80
2017-12-25T11:47:56.971Z,7.00
2017-12-25T11:50:24.551Z,7.20
2017-12-25T11:52:52.268Z,7.50
2017-12-25T11:55:19.833Z,7.60
2017-12-25T11:57:47.381Z,7.80
2017-12-25T12:00:15.569Z,8.00
2017-12-25T12:02:43.547Z,8.20
2017-12-25T12:05:11.146Z,8.30
2017-12-25T12:07:39.688Z,8.30
2017-12-25T12:10:07.540Z,8.40
2017-12-25T12:12:35.088Z,8.50
2017-12-25T12:15:03.000Z,8.60
2017-12-25T12:17:30.728Z,8.80
2017-12-25T12:19:58.665Z,9.00
2017-12-25T12:22:26.296Z,9.10
2017-12-25T12:24:53.837Z,9.20
2017-12-25T12:27:21.396Z,9.40
2017-12-25T12:29:48.924Z,9.30
2017-12-25T12:32:16.492Z,9.50
2017-12-25T12:34:44.807Z,9.70
2017-12-25T12:37:12.379Z,9.70
2017-12-25T12:39:39.963Z,9.90
2017-12-25T12:42:07.531Z,10.00
2017-12-25T12:44:36.035Z,10.20
2017-12-25T12:47:04.443Z,10.30
2017-12-25T12:49:33.111Z,10.30
2017-12-25T12:52:00.657Z,10.50
2017-12-25T12:54:30.009Z,10.90
2017-12-25T12:56:58.522Z,10.90
2017-12-25T12:59:26.188Z,11.00
2017-12-25T13:01:54.670Z,11.10
2017-12-25T13:04:22.690Z,11.30
2017-12-25T13:06:50.372Z,11.40
2017-12-25T13:09:18.215Z,11.50
2017-12-25T13:11:47.687Z,11.60
2017-12-25T13:14:15.274Z,11.60
2017-12-25T13:16:43.337Z,11.60
2017-12-25T13:19:11.424Z,11.40
2017-12-25T13:21:38.979Z,11.40
2017-12-25T13:24:06.528Z,11.30
2017-12-25T13:26:34.121Z,11.30
2017-12-25T13:29:01.659Z,11.40
2017-12-25T13:31:29.179Z,11.40
2017-12-25T13:33:56.756Z,11.20
2017-12-25T13:36:24.452Z,11.00
2017-12-25T13:38:52.419Z,11.10
2017-12-25T13:41:19.990Z,11.20
2017-12-25T13:43:47.545Z,11.20
2017-12-25T13:46:15.395Z,11.10
2017-12-25T13:48:43.178Z,11.00
2017-12-25T13:51:10.813Z,11.00
2017-12-25T13:53:38.372Z,11.10
2017-12-25T13:56:05.932Z,11.00
2017-12-25T13:58:33.475Z,11.10
2017-12-25T14:01:01.065Z,11.20
2017-12-25T14:03:28.599Z,11.20
2017-12-25T14:05:56.357Z,11.20
2017-12-25T14:08:23.945Z,11.30
2017-12-25T14:10:51.702Z,11.30
2017-12-25T14:13:19.805Z,11.10
2017-12-25T14:15:48.128Z,11.10
2017-12-25T14:18:15.912Z,10.90
2017-12-25T14:20:43.670Z,10.80
2017-12-25T14:23:11.204Z,10.70
2017-12-25T14:25:39.622Z,10.50
2017-12-25T14:28:08.204Z,10.50
2017-12-25T14:30:36.268Z,10.40
2017-12-25T14:33:04.371Z,10.30
2017-12-25T14:35:32.665Z,10.00
2017-12-25T14:38:01.640Z,9.90
2017-12-25T14:40:30.485Z,9.70
2017-12-25T14:42:58.062Z,9.70
2017-12-25T14:45:26.125Z,9.60
2017-12-25T14:47:53.862Z,9.60
2017-12-25T14:50:21.423Z,9.40
2017-12-25T14:52:49.142Z,9.20
2017-12-25T14:55:16.870Z,9.10
2017-12-25T14:57:45.061Z,9.10
2017-12-25T15:00:12.795Z,9.00
2017-12-25T15:02:40.957Z,8.90
2017-12-25T15:05:08.762Z,8.70
2017-12-25T15:07:37.736Z,8.60
2017-12-25T15:10:05.309Z,8.40
2017-12-25T15:12:32.950Z,8.30
2017-12-25T15:15:00.619Z,8.20
2017-12-25T15:17:29.964Z,8.00
2017-12-25T15:19:58.045Z,7.90
2017-12-25T15:22:25.601Z,7.70
2017-12-25T15:24:53.197Z,7.70
2017-12-25T15:27:21.001Z,7.50
2017-12-25T15:29:48.667Z,7.30
2017-12-25T15:32:16.247Z,7.30
2017-12-25T15:34:44.380Z,7.20
2017-12-25T15:37:12.855Z,7.10
2017-12-25T15:39:40.500Z,7.10
2017-12-25T15:42:08.255Z,7.10
2017-12-25T15:44:37.168Z,7.00
2017-12-25T15:47:05.765Z,6.90
2017-12-25T15:49:34.355Z,6.90
2017-12-25T15:52:05.884Z,6.80
2017-12-25T15:54:34.057Z,6.80
2017-12-25T15:57:02.131Z,6.70
2017-12-25T15:59:30.198Z,6.70
2017-12-25T16:01:57.842Z,6.70
2017-12-25T16:04:25.758Z,6.60
2017-12-25T16:06:54.298Z,6.60
2017-12-25T16:09:22.404Z,6.50
2017-12-25T16:11:50.534Z,6.50
2017-12-25T16:14:18.855Z,6.40
2017-12-25T16:16:47.149Z,6.30
2017-12-25T16:19:14.951Z,6.30
2017-12-25T16:21:43.575Z,6.20
2017-12-25T16:24:11.138Z,6.20
2017-12-25T16:26:38.748Z,5.90
2017-12-25T16:29:06.287Z,5.80
2017-12-25T16:31:33.823Z,5.80
2017-12-25T16:34:03.324Z,5.80
2017-12-25T16:36:31.966Z,5.70
2017-12-25T16:38:59.528Z,5.60
2017-12-25T16:41:27.064Z,5.40
2017-12-25T16:43:55.404Z,5.30
2017-12-25T16:46:23.241Z,5.30
2017-12-25T16:48:51.314Z,5.30
2017-12-25T16:51:19.297Z,5.30
2017-12-25T16:53:46.907Z,5.10
2017-12-25T16:56:15.014Z,5.20
2017-12-25T16:58:42.675Z,5.20
2017-12-25T17:01:10.683Z,5.10
2017-12-25T17:03:38.423Z,5.10
2017-12-25T17:06:06.435Z,5.10
2017-12-25T17:08:34.974Z,4.90
2017-12-25T17:11:03.673Z,4.90
2017-12-25T17:13:32.641Z,4.90
2017-12-25T17:16:00.213Z,4.80
2017-12-25T17:18:28.047Z,4.90
2017-12-25T17:20:56.137Z,4.90
2017-12-25T17:23:23.667Z,4.90
2017-12-25T17:25:51.215Z,4.90
2017-12-25T17:28:18.786Z,4.90
2017-12-25T17:30:47.278Z,4.80
2017-12-25T17:33:14.863Z,4.80
2017-12-25T17:35:42.509Z,4.90
2017-12-25T17:38:10.077Z,4.90
2017-12-25T17:40:37.944Z,4.90
2017-12-25T17:43:05.622Z,4.90
2017-12-25T17:45:33.147Z,5.00
2017-12-25T17:48:00.819Z,5.00
2017-12-25T17:50:28.363Z,5.00
2017-12-25T17:52:56.222Z,5.10
2017-12-25T17:55:26.071Z,5.10
2017-12-25T17:57:53.735Z,5.00
2017-12-25T18:00:21.328Z,4.90
2017-12-25T18:02:49.748Z,5.00
2017-12-25T18:05:17.541Z,4.90
2017-12-25T18:07:45.491Z,4.90
2017-12-25T18:10:13.703Z,5.00
2017-12-25T18:12:41.825Z,4.90
2017-12-25T18:15:09.840Z,4.80
2017-12-25T18:17:38.186Z,4.70
2017-12-25T18:20:06.812Z,4.80
2017-12-25T18:22:34.617Z,4.80
2017-12-25T18:25:02.303Z,4.80
2017-12-25T18:27:30.138Z,4.70
2017-12-25T18:29:59.450Z,4.50
2017-12-25T18:32:28.214Z,4.50
2017-12-25T18:34:56.421Z,4.40
2017-12-25T18:37:24.222Z,4.40
2017-12-25T18:39:51.828Z,4.40
2017-12-25T18:42:19.596Z,4.40
2017-12-25T18:44:47.487Z,4.40
2017-12-25T18:47:15.354Z,4.50
2017-12-25T18:49:43.683Z,4.50
2017-12-25T18:52:12.008Z,4.40
2017-12-25T18:54:39.979Z,4.40
2017-12-25T18:57:09.619Z,4.50
2017-12-25T18:59:37.407Z,4.70
2017-12-25T19:02:06.484Z,4.80
2017-12-25T19:04:35.740Z,4.80
2017-12-25T19:07:04.221Z,4.80
2017-12-25T19:09:32.023Z,4.80
2017-12-25T19:12:00.048Z,4.80
2017-12-25T19:14:28.022Z,4.90
2017-12-25T19:16:55.772Z,4.90
2017-12-25T19:19:23.558Z,5.00
2017-12-25T19:21:51.634Z,4.90
2017-12-25T19:24:19.527Z,4.80
2017-12-25T19:26:48.236Z,4.70
2017-12-25T19:29:16.170Z,4.70
2017-12-25T19:31:44.496Z,4.60
2017-12-25T19:34:14.531Z,4.60
2017-12-25T19:36:42.072Z,4.50
2017-12-25T19:39:09.643Z,4.70
2017-12-25T19:41:37.560Z,4.50
2017-12-25T19:44:05.647Z,4.50
2017-12-25T19:46:34.390Z,4.60
2017-12-25T19:49:01.928Z,4.50
2017-12-25T19:51:29.607Z,4.60
2017-12-25T19:53:57.785Z,4.70
2017-12-25T19:56:25.767Z,4.70
2017-12-25T19:58:53.311Z,4.50
2017-12-25T20:01:21.161Z,4.50
2017-12-25T20:03:48.684Z,4.40
2017-12-25T20:06:16.218Z,4.40
2017-12-25T20:08:44.833Z,4.10
2017-12-25T20:11:12.710Z,4.00
2017-12-25T20:13:40.276Z,4.00
2017-12-25T20:16:07.804Z,4.00
2017-12-25T20:18:36.137Z,3.90
2017-12-25T20:21:03.652Z,3.90
2017-12-25T20:23:31.216Z,3.80
2017-12-25T20:26:00.745Z,3.90
2017-12-25T20:28:28.260Z,3.90
2017-12-25T20:30:55.837Z,3.90
2017-12-25T20:33:24.139Z,3.90
2017-12-25T20:35:51.785Z,3.90
2017-12-25T20:38:20.214Z,3.80
2017-12-25T20:40:48.049Z,3.80
2017-12-25T20:43:17.037Z,3.80
2017-12-25T20:45:45.027Z,3.90
2017-12-25T20:48:12.772Z,3.90
2017-12-25T20:50:40.537Z,4.00
2017-12-25T20:53:08.355Z,3.90
2017-12-25T20:55:35.997Z,3.80
2017-12-25T20:58:04.729Z,3.80
2017-12-25T21:00:32.617Z,3.80
2017-12-25T21:03:00.275Z,3.80
2017-12-25T21:05:28.017Z,3.70
2017-12-25T21:07:56.373Z,3.70
2017-12-25T21:10:23.899Z,3.60
2017-12-25T21:12:53.386Z,3.40
2017-12-25T21:15:20.932Z,3.40
2017-12-25T21:17:48.484Z,3.40
2017-12-25T21:20:16.010Z,3.30
2017-12-25T21:22:43.543Z,3.30
2017-12-25T21:25:11.259Z,3.40
2017-12-25T21:27:39.421Z,3.50
2017-12-25T21:30:07.161Z,3.60
2017-12-25T21:32:35.675Z,3.50
2017-12-25T21:35:03.968Z,3.50
2017-12-25T21:37:32.393Z,3.50
2017-12-25T21:39:59.973Z,3.40
2017-12-25T21:42:28.567Z,3.50
2017-12-25T21:44:56.574Z,3.50
2017-12-25T21:47:24.468Z,3.50
2017-12-25T21:49:52.295Z,3.40
2017-12-25T21:52:20.055Z,3.50
2017-12-25T21:54:47.572Z,3.50
2017-12-25T21:57:15.123Z,3.70
2017-12-25T21:59:42.651Z,3.60
2017-12-25T22:02:10.206Z,3.60
2017-12-25T22:04:37.725Z,3.60
2017-12-25T22:07:05.271Z,3.60
2017-12-25T22:09:33.563Z,3.50
2017-12-25T22:12:01.261Z,3.50
2017-12-25T22:14:28.828Z,3.50
2017-12-25T22:16:56.373Z,3.60
2017-12-25T22:19:23.897Z,3.60
2017-12-25T22:21:52.198Z,3.60
2017-12-25T22:24:19.751Z,3.60
2017-12-25T22:26:47.486Z,3.50
2017-12-25T22:29:15.792Z,3.50
2017-12-25T22:31:43.359Z,3.50
2017-12-25T22:34:10.975Z,3.60
2017-12-25T22:36:38.740Z,3.60
2017-12-25T22:39:06.295Z,3.60
2017-12-25T22:41:33.827Z,3.40
2017-12-25T22:44:01.412Z,3.30
2017-12-25T22:46:28.955Z,3.30
2017-12-25T22:48:58.436Z,3.30
2017-12-25T22:51:25.974Z,3.30
2017-12-25T22:53:53.543Z,3.30
2017-12-25T22:56:21.075Z,3.20
2017-12-25T22:58:48.652Z,3.30
2017-12-25T23:01:16.208Z,3.40
2017-12-25T23:03:45.062Z,3.40
2017-12-25T23:06:12.883Z,3.40
2017-12-25T23:08:40.915Z,3.40
2017-12-25T23:11:10.450Z,3.40
2017-12-25T23:13:37.967Z,3.40
2017-12-25T23:16:05.532Z,3.40
2017-12-25T23:18:33.832Z,3.20
2017-12-25T23:21:03.060Z,3.20
2017-12-25T23:23:30.904Z,3.20
2017-12-25T23:25:58.429Z,3.20
2017-12-25T23:28:26.022Z,3.10
2017-12-25T23:30:54.092Z,3.10
2017-12-25T23:33:21.785Z,2.90
2017-12-25T23:35:50.804Z,3.00
2017-12-25T23:38:18.465Z,3.00
2017-12-25T23:40:46.292Z,3.00
2017-12-25T23:43:14.347Z,3.10
2017-12-25T23:45:41.903Z,3.10
2017-12-25T23:48:09.887Z,3.10
2017-12-25T23:50:37.472Z,3.10
2017-12-25T23:53:04.984Z,3.10
2017-12-25T23:55:32.527Z,3.10
2017-12-25T23:58:00.108Z,3.20
